バクー の空港の天気 - METARとTAF

ヘイダル・アリエフ国際空港(バクー) ( UBBB / BAK ) - アゼルバイジャン バクー
飛行場実況気象(Metar)
観測時間01/29 12:00 AZT (01/29 08:00 UTC)
風向・風速西北西 2m/s
視程10km以上
天気現象
なし
気温8℃
湿度61%
気圧1021hPa
METARUBBB 290800Z 29004KT CAVOK 08/01 Q1021 NOSIG
過去の天気等 Google飛行場航空写真 Wunderground天気予報

過去48時間のMETAR

飛行場予報(TAF)
発表時間: 1/29 09:14 AZT (1/29 05:14 UTC)
予報対象時間: 29日10時 AZT ~ 30日10時 AZT
風向・風速南 5m/s
視程10km以上
全天の4割程度の雲 雲底高度 910m
29日10時 AZT ~ 29日12時 AZT に一時的に
風向・風速不定 2m/s
視程6000m
少しの雲 雲底高度 370m
29日12時 AZT ~ 29日22時 AZT に一時的に
風向・風速南西 8m/s
29日22時 AZT ~ 29日24時 AZT に徐々に
風向・風速不定 2m/s
TAF UBBB 290514Z 2906/3006 18010KT 9999 SCT030 TX09/2910Z TN02/3002Z
TEMPO 2906/2908 VRB04KT 6000 FEW012
TEMPO 2908/2918 22016KT
BECMG 2918/2920 VRB04KT